Time;durP1;ratioP1;P1;durP2;ratioP2;P2;SDS_P1;SDS_P2;PMS_P1;PMS_P2;Temp;Humidity;BMP_temperature;BMP_pressure;BME280_temperature;BME280_humidity;BME280_pressure;Samples;Min_cycle;Max_cycle;Signal;HPM_P1;HPM_P2
2021/11/04 00:04:11;;;;;;;;;16.33;15.67;;;;;;;;6158402;22;46873;-85
2021/11/04 00:58:49;;;;;;;;;20.33;19.67;;;;;;;;6194383;22;47238;-85
2021/11/04 01:01:14;;;;;;;;;13.67;13.67;;;;;;;;6255529;22;45266;-85
2021/11/04 01:03:39;;;;;;;;;19.67;18.67;;;;;;;;6225218;22;45297;-85
2021/11/04 01:11:32;;;;;;;;;17.00;15.67;;;;;;;;6225484;22;46225;-85
2021/11/04 01:16:43;;;;;;;;;17.67;16.67;;;;;;;;6223130;22;46896;-83
2021/11/04 01:42:46;;;;;;;;;18.67;18.00;;;;;;;;6178232;22;45821;-85
2021/11/04 01:58:47;;;;;;;;;21.33;19.67;;;;;;;;6194594;22;45414;-84
2021/11/04 02:40:27;;;;;;;;;20.33;19.33;;;;;;;;6198234;22;46020;-84
2021/11/04 03:12:22;;;;;;;;;22.33;22.00;;;;;;;;6121454;22;46619;-84
2021/11/04 03:48:24;;;;;;;;;23.00;23.00;;;;;;;;6229397;22;46885;-84
2021/11/04 03:50:50;;;;;;;;;22.00;19.33;;;;;;;;6229617;22;45482;-85
2021/11/04 03:53:31;;;;;;;;;;;;;;;;;;;;;
2021/11/04 03:59:01;;;;;;;;;24.33;21.67;;;;;;;;6254512;22;45618;-85
2021/11/04 04:01:26;;;;;;;;;17.00;15.33;;;;;;;;6227412;22;45503;-85
2021/11/04 04:03:51;;;;;;;;;23.00;20.67;;;;;;;;6227474;22;45232;-84
2021/11/04 04:06:24;;;;;;;;;22.33;20.00;;;;;;;;6227337;22;44870;-85
2021/11/04 04:08:51;;;;;;;;;24.00;22.00;;;;;;;;6254194;22;45401;-85
2021/11/04 04:17:42;;;;;;;;;19.00;19.00;;;;;;;;6102371;23;45476;-84
2021/11/04 04:33:25;;;;;;;;;19.33;18.00;;;;;;;;6233177;22;45234;-84
2021/11/04 04:35:51;;;;;;;;;24.33;21.33;;;;;;;;6198111;22;44776;-85
2021/11/04 06:00:38;;;;;;;;;24.50;18.00;;;;;;;;6114206;22;47058;-82
2021/11/04 06:31:57;;;;;;;;;16.00;14.67;;;;;;;;6124920;22;46512;-84
2021/11/04 07:31:08;;;;;;;;;12.67;12.33;;;;;;;;6233363;22;46062;-86
2021/11/04 09:20:23;;;;;;;;;;;;;;;;;;;;;
2021/11/04 10:11:44;;;;;;;;;9.33;9.33;;;;;;;;5824794;24;45441;-84
2021/11/04 10:15:11;;;;;;;;;;;;;;;;;;;;;
2021/11/04 12:52:29;;;;;;;;;0.67;0.67;;;;;;;;6257474;22;44926;-83
2021/11/04 13:37:24;;;;;;;;;2.00;2.00;;;;;;;;6213353;22;46180;-84
2021/11/04 13:40:20;;;;;;;;;1.00;1.00;;;;;;;;6247834;22;45762;-83
2021/11/04 13:43:02;;;;;;;;;2.67;1.33;;;;;;;;6079049;23;44853;-83
2021/11/04 13:46:14;;;;;;;;;;;;;;;;;;;;;
2021/11/04 13:48:48;;;;;;;;;0.00;0.00;;;;;;;;6107703;23;45037;-84
2021/11/04 13:51:29;;;;;;;;;2.00;2.00;;;;;;;;6105086;23;45493;-82
2021/11/04 13:54:17;;;;;;;;;1.00;1.00;;;;;;;;6104145;23;45352;-83
2021/11/04 13:57:02;;;;;;;;;1.00;1.00;;;;;;;;6106044;23;45343;-82
2021/11/04 13:59:34;;;;;;;;;1.00;1.00;;;;;;;;6104586;23;46805;-84
2021/11/04 14:02:10;;;;;;;;;1.00;1.00;;;;;;;;6104594;23;45909;-82
2021/11/04 14:05:04;;;;;;;;;0.67;0.67;;;;;;;;6105292;23;44755;-82
2021/11/04 14:10:42;;;;;;;;;0.00;0.00;;;;;;;;6104980;23;44880;-84
2021/11/04 14:13:13;;;;;;;;;0.00;0.00;;;;;;;;6104653;23;45158;-85
2021/11/04 14:16:13;;;;;;;;;3.00;1.00;;;;;;;;6079289;23;45452;-83
2021/11/04 14:18:41;;;;;;;;;0.00;0.00;;;;;;;;6118523;22;45729;-83
2021/11/04 14:21:15;;;;;;;;;0.67;0.67;;;;;;;;6256081;22;45357;-85
2021/11/04 14:27:01;;;;;;;;;;;;;;;;;;;;;
2021/11/04 14:29:30;;;;;;;;;2.00;2.00;;;;;;;;6132617;23;65258;-85
2021/11/04 14:38:15;;;;;;;;;;;;;;;;;;;;;
2021/11/04 14:40:49;;;;;;;;;1.33;1.33;;;;;;;;6104534;23;66119;-84
2021/11/04 14:43:26;;;;;;;;;0.00;0.00;;;;;;;;6081842;23;45337;-84
2021/11/04 14:51:43;;;;;;;;;2.00;2.00;;;;;;;;5991463;23;44744;-83
2021/11/04 14:54:08;;;;;;;;;1.00;1.00;;;;;;;;6051286;23;47182;-83
2021/11/04 14:56:45;;;;;;;;;1.00;1.00;;;;;;;;6050195;23;45505;-83
2021/11/04 14:59:16;;;;;;;;;1.67;0.67;;;;;;;;6046810;23;45565;-82
2021/11/04 15:01:44;;;;;;;;;1.33;1.00;;;;;;;;6049634;23;44851;-82
2021/11/04 15:04:09;;;;;;;;;1.00;1.00;;;;;;;;6050049;23;47296;-82
2021/11/04 15:06:37;;;;;;;;;0.67;0.67;;;;;;;;6075892;23;45434;-82
2021/11/04 15:09:03;;;;;;;;;1.00;1.00;;;;;;;;6075782;23;44769;-82
2021/11/04 15:11:38;;;;;;;;;;;;;;;;;;;;;
2021/11/04 15:14:04;;;;;;;;;2.00;2.00;;;;;;;;6074706;23;75504;-82
2021/11/04 15:16:43;;;;;;;;;1.00;1.00;;;;;;;;6049240;23;44901;-80
2021/11/04 15:19:13;;;;;;;;;1.33;1.33;;;;;;;;6051029;23;45350;-82
2021/11/04 15:25:07;;;;;;;;;1.00;1.00;;;;;;;;6080747;22;45469;-82
2021/11/04 15:30:31;;;;;;;;;3.00;2.00;;;;;;;;6194570;22;45494;-81
2021/11/04 15:32:56;;;;;;;;;1.00;1.00;;;;;;;;6168882;23;45372;-81
2021/11/04 15:35:34;;;;;;;;;2.33;1.67;;;;;;;;6173351;23;47032;-83
2021/11/04 15:38:06;;;;;;;;;1.67;1.67;;;;;;;;6165621;23;45758;-82
2021/11/04 15:40:32;;;;;;;;;0.00;0.00;;;;;;;;6196432;23;44782;-81
2021/11/04 15:43:16;;;;;;;;;1.00;1.00;;;;;;;;6171450;23;45382;-82
2021/11/04 15:45:42;;;;;;;;;2.00;1.00;;;;;;;;6170516;23;45476;-82
2021/11/04 15:48:09;;;;;;;;;1.67;1.67;;;;;;;;6144898;23;44823;-85
2021/11/04 15:50:45;;;;;;;;;0.00;0.00;;;;;;;;6195641;22;45392;-86
2021/11/04 15:53:25;;;;;;;;;;;;;;;;;;;;;
2021/11/04 15:59:10;;;;;;;;;;;;;;;;;;;;;
2021/11/04 16:01:44;;;;;;;;;0.33;0.33;;;;;;;;6189892;22;67889;-83
2021/11/04 16:04:23;;;;;;;;;0.00;0.00;;;;;;;;6192802;22;45183;-83
2021/11/04 16:06:59;;;;;;;;;;;;;;;;;;;;;
2021/11/04 16:09:24;;;;;;;;;0.67;0.67;;;;;;;;6222652;22;72445;-84
2021/11/04 16:14:56;;;;;;;;;2.00;1.00;;;;;;;;6224612;22;45004;-83
2021/11/04 16:17:24;;;;;;;;;3.00;3.00;;;;;;;;6195691;22;45737;-82
2021/11/04 16:20:10;;;;;;;;;1.33;1.33;;;;;;;;6195619;22;44815;-82
2021/11/04 16:22:51;;;;;;;;;3.00;3.00;;;;;;;;6222190;22;45121;-83
2021/11/04 16:28:44;;;;;;;;;6.33;1.67;;;;;;;;6224493;22;45444;-82
2021/11/04 16:31:23;;;;;;;;;2.00;2.00;;;;;;;;6196676;22;45419;-83
2021/11/04 16:34:02;;;;;;;;;3.00;3.00;;;;;;;;6196931;22;45438;-83
2021/11/04 16:37:07;;;;;;;;;;;;;;;;;;;;;
2021/11/04 16:39:43;;;;;;;;;4.00;3.33;;;;;;;;6195209;22;74958;-83
2021/11/04 16:42:13;;;;;;;;;4.67;4.67;;;;;;;;6196366;22;45420;-82
2021/11/04 16:44:43;;;;;;;;;9.00;7.00;;;;;;;;6171405;22;45398;-82
2021/11/04 16:47:11;;;;;;;;;4.00;3.67;;;;;;;;6197038;22;45235;-83
2021/11/04 16:49:40;;;;;;;;;4.67;4.00;;;;;;;;6199146;22;46884;-84
2021/11/04 17:01:24;;;;;;;;;5.00;4.33;;;;;;;;6229088;22;44782;-84
2021/11/04 17:03:51;;;;;;;;;4.33;4.33;;;;;;;;6198847;22;45244;-83
2021/11/04 17:06:16;;;;;;;;;4.00;4.00;;;;;;;;6195277;22;45409;-83
2021/11/04 17:08:42;;;;;;;;;6.33;6.33;;;;;;;;6196318;22;45476;-82
2021/11/04 17:11:07;;;;;;;;;7.67;5.00;;;;;;;;6194712;22;47236;-83
2021/11/04 17:13:34;;;;;;;;;7.00;7.00;;;;;;;;6194972;22;45313;-82
2021/11/04 17:16:02;;;;;;;;;7.00;7.00;;;;;;;;6223103;22;45428;-82
2021/11/04 17:18:27;;;;;;;;;5.67;5.00;;;;;;;;6196863;22;45289;-82
2021/11/04 17:20:55;;;;;;;;;4.00;4.00;;;;;;;;6222793;22;45272;-83
2021/11/04 17:23:24;;;;;;;;;5.00;3.00;;;;;;;;6195175;22;44781;-83
2021/11/04 17:25:50;;;;;;;;;4.00;4.00;;;;;;;;6195091;22;45231;-83
2021/11/04 17:28:16;;;;;;;;;6.33;6.33;;;;;;;;6194998;22;45452;-83
2021/11/04 17:30:47;;;;;;;;;5.00;5.00;;;;;;;;6222598;22;45234;-83
2021/11/04 17:33:41;;;;;;;;;4.67;4.67;;;;;;;;6221720;22;44966;-83
2021/11/04 17:36:09;;;;;;;;;8.33;8.33;;;;;;;;6194246;22;44741;-81
2021/11/04 17:38:41;;;;;;;;;9.67;7.67;;;;;;;;6215553;22;45387;-81
2021/11/04 17:41:16;;;;;;;;;9.67;9.67;;;;;;;;6223000;22;45606;-82
2021/11/04 17:43:41;;;;;;;;;10.67;9.67;;;;;;;;6195855;22;45453;-82
2021/11/04 17:46:12;;;;;;;;;8.67;8.67;;;;;;;;6196483;22;45195;-83
2021/11/04 17:48:37;;;;;;;;;13.33;10.33;;;;;;;;6196406;22;44796;-82
2021/11/04 17:51:03;;;;;;;;;17.33;14.67;;;;;;;;6222916;22;46070;-82
2021/11/04 17:53:37;;;;;;;;;15.33;15.00;;;;;;;;6221168;22;44828;-84
2021/11/04 17:56:03;;;;;;;;;11.00;11.00;;;;;;;;6195912;22;45337;-83
2021/11/04 17:58:29;;;;;;;;;14.00;11.67;;;;;;;;6197133;22;45513;-82
2021/11/04 18:00:56;;;;;;;;;14.00;14.00;;;;;;;;6224005;22;44950;-81
2021/11/04 18:03:22;;;;;;;;;12.00;11.33;;;;;;;;6194509;22;45532;-82
2021/11/04 18:05:47;;;;;;;;;11.33;11.33;;;;;;;;6221822;22;45854;-82
2021/11/04 18:08:15;;;;;;;;;12.33;10.00;;;;;;;;6193116;22;44912;-82
2021/11/04 18:10:45;;;;;;;;;15.33;11.67;;;;;;;;6220319;22;45450;-81
2021/11/04 18:13:13;;;;;;;;;10.67;9.67;;;;;;;;6221328;22;45380;-82
2021/11/04 18:15:39;;;;;;;;;9.33;9.00;;;;;;;;6193359;22;45446;-82
2021/11/04 18:18:06;;;;;;;;;13.67;10.00;;;;;;;;6194781;22;45188;-82
2021/11/04 18:20:32;;;;;;;;;14.00;13.67;;;;;;;;6222688;22;45215;-82
2021/11/04 18:22:57;;;;;;;;;8.33;8.33;;;;;;;;6194170;22;45559;-83
2021/11/04 18:25:23;;;;;;;;;8.00;8.00;;;;;;;;6221854;22;45353;-83
2021/11/04 18:27:48;;;;;;;;;12.67;11.67;;;;;;;;6194670;22;45493;-82
2021/11/04 18:30:16;;;;;;;;;11.00;11.00;;;;;;;;6222458;22;44912;-83
2021/11/04 18:32:42;;;;;;;;;12.67;12.67;;;;;;;;6222620;22;45503;-83
2021/11/04 18:35:10;;;;;;;;;18.00;15.00;;;;;;;;6194964;22;44990;-83
2021/11/04 18:37:36;;;;;;;;;13.67;13.00;;;;;;;;6222164;22;45267;-83
2021/11/04 18:40:04;;;;;;;;;12.33;12.33;;;;;;;;6220424;22;45464;-83
2021/11/04 18:42:30;;;;;;;;;19.67;16.00;;;;;;;;6195563;22;45316;-83
2021/11/04 18:44:59;;;;;;;;;14.00;12.67;;;;;;;;6197468;22;45429;-82
2021/11/04 18:47:24;;;;;;;;;7.33;7.00;;;;;;;;6191716;22;45488;-82
2021/11/04 18:49:50;;;;;;;;;7.67;7.67;;;;;;;;6193188;22;47041;-81
2021/11/04 18:52:17;;;;;;;;;12.00;12.00;;;;;;;;6192619;22;45431;-82
2021/11/04 18:54:43;;;;;;;;;9.00;9.00;;;;;;;;6220505;22;45346;-82
2021/11/04 18:57:09;;;;;;;;;9.00;7.33;;;;;;;;6219295;22;45387;-82
2021/11/04 18:59:34;;;;;;;;;11.00;11.00;;;;;;;;6219988;22;45139;-81
2021/11/04 19:01:59;;;;;;;;;10.67;10.67;;;;;;;;6219806;22;45262;-82
2021/11/04 19:04:25;;;;;;;;;9.67;8.33;;;;;;;;6221330;22;45320;-82
2021/11/04 19:07:03;;;;;;;;;9.33;9.33;;;;;;;;6194233;22;45276;-82
2021/11/04 19:09:29;;;;;;;;;9.33;7.00;;;;;;;;6192050;22;48272;-82
2021/11/04 19:11:55;;;;;;;;;8.00;8.00;;;;;;;;6220980;22;45408;-82
2021/11/04 19:14:20;;;;;;;;;9.33;9.33;;;;;;;;6220627;22;45338;-81
2021/11/04 19:16:46;;;;;;;;;13.33;12.00;;;;;;;;6192595;22;45311;-82
2021/11/04 19:19:11;;;;;;;;;11.33;11.33;;;;;;;;6220793;22;45440;-82
2021/11/04 19:21:36;;;;;;;;;11.33;8.33;;;;;;;;6222974;22;45363;-82
2021/11/04 19:24:02;;;;;;;;;9.33;7.67;;;;;;;;6222556;22;45417;-82
2021/11/04 19:26:28;;;;;;;;;9.00;9.00;;;;;;;;6195334;22;45663;-82
2021/11/04 19:28:54;;;;;;;;;9.00;9.00;;;;;;;;6222603;22;45957;-82
2021/11/04 19:31:19;;;;;;;;;10.67;10.00;;;;;;;;6220298;22;45371;-82
2021/11/04 19:33:45;;;;;;;;;12.00;10.67;;;;;;;;6218869;22;45335;-82
2021/11/04 19:36:10;;;;;;;;;9.33;8.67;;;;;;;;6193217;22;45703;-82
2021/11/04 19:38:35;;;;;;;;;7.67;7.67;;;;;;;;6190452;22;47895;-82
2021/11/04 19:41:01;;;;;;;;;9.00;9.00;;;;;;;;6216466;22;45334;-82
2021/11/04 19:43:26;;;;;;;;;6.67;6.67;;;;;;;;6217865;22;45632;-82
2021/11/04 19:45:52;;;;;;;;;11.33;11.00;;;;;;;;6188735;22;45262;-81
2021/11/04 19:48:17;;;;;;;;;11.33;11.33;;;;;;;;6218116;22;45429;-81
2021/11/04 19:50:42;;;;;;;;;13.33;9.67;;;;;;;;6217356;22;45567;-82
2021/11/04 19:53:08;;;;;;;;;9.67;8.67;;;;;;;;6191630;22;45324;-82
2021/11/04 19:55:38;;;;;;;;;13.00;11.33;;;;;;;;6190230;22;45394;-82
2021/11/04 19:58:03;;;;;;;;;8.33;8.33;;;;;;;;6189740;22;46834;-82
2021/11/04 20:00:30;;;;;;;;;12.33;10.67;;;;;;;;6218784;22;44898;-82
2021/11/04 20:02:55;;;;;;;;;9.00;9.00;;;;;;;;6192211;22;45408;-81
2021/11/04 20:05:21;;;;;;;;;13.33;13.33;;;;;;;;6217506;22;45302;-81
2021/11/04 20:07:48;;;;;;;;;10.00;10.00;;;;;;;;6215859;22;45377;-82
2021/11/04 20:10:13;;;;;;;;;11.67;11.67;;;;;;;;6190374;22;45254;-83
2021/11/04 20:12:39;;;;;;;;;11.33;8.00;;;;;;;;6189677;22;45134;-83
2021/11/04 20:15:06;;;;;;;;;7.67;7.67;;;;;;;;6216466;22;44945;-83
2021/11/04 20:17:31;;;;;;;;;8.33;8.33;;;;;;;;6189969;22;47847;-83
2021/11/04 20:19:56;;;;;;;;;12.00;12.00;;;;;;;;6219401;22;45375;-81
2021/11/04 20:22:21;;;;;;;;;17.33;13.00;;;;;;;;6190442;22;45453;-83
2021/11/04 20:24:47;;;;;;;;;13.33;12.33;;;;;;;;6218769;22;44835;-83
2021/11/04 20:27:14;;;;;;;;;12.33;12.00;;;;;;;;6219006;22;45703;-83
2021/11/04 20:29:39;;;;;;;;;9.33;9.33;;;;;;;;6190405;22;45377;-83
2021/11/04 20:32:05;;;;;;;;;6.00;6.00;;;;;;;;6189698;22;45226;-83
2021/11/04 20:34:32;;;;;;;;;14.00;13.67;;;;;;;;6218069;22;44837;-83
2021/11/04 20:36:57;;;;;;;;;13.00;9.67;;;;;;;;6190288;22;46866;-83
2021/11/04 20:39:24;;;;;;;;;9.00;9.00;;;;;;;;6190881;22;45366;-83
2021/11/04 20:41:50;;;;;;;;;11.33;11.33;;;;;;;;6192495;22;45376;-83
2021/11/04 20:44:15;;;;;;;;;10.67;10.33;;;;;;;;6219033;22;45441;-83
2021/11/04 20:46:42;;;;;;;;;7.67;7.67;;;;;;;;6194095;22;46834;-81
2021/11/04 20:49:07;;;;;;;;;11.33;10.00;;;;;;;;6193387;22;45273;-83
2021/11/04 20:51:33;;;;;;;;;9.00;9.00;;;;;;;;6192542;22;45339;-82
2021/11/04 20:53:59;;;;;;;;;10.00;9.00;;;;;;;;6191741;22;45366;-82
2021/11/04 20:56:24;;;;;;;;;8.00;8.00;;;;;;;;6192902;22;47038;-82
2021/11/04 20:58:49;;;;;;;;;8.33;8.33;;;;;;;;6191603;22;45252;-83
2021/11/04 21:01:14;;;;;;;;;9.33;9.33;;;;;;;;6216588;22;45396;-82
2021/11/04 21:03:40;;;;;;;;;11.33;9.67;;;;;;;;6189700;22;45286;-83
2021/11/04 21:06:05;;;;;;;;;14.67;12.67;;;;;;;;6218140;22;45259;-83
2021/11/04 21:08:34;;;;;;;;;8.00;8.00;;;;;;;;6190092;22;45314;-83
2021/11/04 21:10:59;;;;;;;;;11.33;11.33;;;;;;;;6219176;22;45403;-83
2021/11/04 21:13:24;;;;;;;;;10.67;9.00;;;;;;;;6192100;22;45475;-82
2021/11/04 21:15:50;;;;;;;;;11.00;10.33;;;;;;;;6191417;22;46789;-82
2021/11/04 21:18:15;;;;;;;;;8.67;8.67;;;;;;;;6219051;22;45815;-82
2021/11/04 21:20:41;;;;;;;;;8.00;8.00;;;;;;;;6218032;22;45372;-82
2021/11/04 21:23:09;;;;;;;;;9.00;5.67;;;;;;;;6219245;22;45294;-84
2021/11/04 21:25:34;;;;;;;;;7.33;7.33;;;;;;;;6192306;22;46822;-82
2021/11/04 21:27:59;;;;;;;;;10.00;8.67;;;;;;;;6219383;22;45365;-81
2021/11/04 21:36:33;;;;;;;;;6.00;4.33;;;;;;;;6217836;22;45704;-82
2021/11/04 21:38:58;;;;;;;;;4.33;4.00;;;;;;;;6191985;22;45385;-82
2021/11/04 21:41:24;;;;;;;;;7.00;7.00;;;;;;;;6191612;22;45291;-82
2021/11/04 21:43:51;;;;;;;;;6.33;6.33;;;;;;;;6190983;22;45363;-82
2021/11/04 21:46:16;;;;;;;;;7.00;7.00;;;;;;;;6218790;22;46015;-81
2021/11/04 21:48:41;;;;;;;;;8.00;8.00;;;;;;;;6241709;22;45488;-81
2021/11/04 21:51:07;;;;;;;;;7.67;6.33;;;;;;;;6192303;22;45367;-82
2021/11/04 21:56:36;;;;;;;;;5.67;5.00;;;;;;;;6218107;22;45390;-82
2021/11/04 21:59:01;;;;;;;;;7.33;7.33;;;;;;;;6193300;22;45324;-81
2021/11/04 22:01:26;;;;;;;;;7.00;7.00;;;;;;;;6220581;22;45881;-82
2021/11/04 22:03:52;;;;;;;;;4.00;4.00;;;;;;;;6193453;22;45526;-84
2021/11/04 22:09:21;;;;;;;;;4.00;4.00;;;;;;;;6218345;22;45387;-82
2021/11/04 22:11:48;;;;;;;;;8.00;8.00;;;;;;;;6191575;22;45338;-83
2021/11/04 22:14:14;;;;;;;;;7.67;7.67;;;;;;;;6191421;22;45378;-82
2021/11/04 22:16:41;;;;;;;;;8.00;8.00;;;;;;;;6217044;22;45445;-82
2021/11/04 22:19:06;;;;;;;;;8.00;8.00;;;;;;;;6217899;22;45509;-82
2021/11/04 22:21:33;;;;;;;;;6.33;6.00;;;;;;;;6190063;22;45359;-82
2021/11/04 22:23:58;;;;;;;;;6.00;6.00;;;;;;;;6190420;22;45351;-82
2021/11/04 22:26:25;;;;;;;;;9.00;9.00;;;;;;;;6217806;22;45375;-81
2021/11/04 22:28:52;;;;;;;;;6.67;6.67;;;;;;;;6217219;22;45460;-82
2021/11/04 22:31:18;;;;;;;;;6.67;6.67;;;;;;;;6220398;22;45358;-82
2021/11/04 22:33:45;;;;;;;;;3.67;3.67;;;;;;;;6193349;22;45391;-81
2021/11/04 22:36:11;;;;;;;;;9.33;8.33;;;;;;;;6191863;22;46820;-84
2021/11/04 22:38:39;;;;;;;;;9.00;9.00;;;;;;;;6192931;22;45388;-82
2021/11/04 22:41:05;;;;;;;;;11.00;9.33;;;;;;;;6188356;22;45292;-82
2021/11/04 22:43:30;;;;;;;;;10.00;8.67;;;;;;;;6161583;23;45570;-82
2021/11/04 22:45:57;;;;;;;;;8.00;8.00;;;;;;;;6162262;23;47148;-83
2021/11/04 22:48:22;;;;;;;;;6.67;4.00;;;;;;;;6160740;23;45900;-82
2021/11/04 22:50:48;;;;;;;;;7.00;7.00;;;;;;;;6161270;23;45418;-82
2021/11/04 22:53:13;;;;;;;;;8.00;7.33;;;;;;;;6161747;23;45395;-82
2021/11/04 22:55:39;;;;;;;;;7.67;7.67;;;;;;;;6160815;23;47980;-83
2021/11/04 22:58:04;;;;;;;;;3.00;3.00;;;;;;;;6189579;23;45453;-83
2021/11/04 23:00:33;;;;;;;;;9.67;6.33;;;;;;;;6188978;23;45358;-83
2021/11/04 23:03:02;;;;;;;;;5.33;5.33;;;;;;;;6162675;23;45237;-82
2021/11/04 23:05:33;;;;;;;;;6.00;6.00;;;;;;;;6156687;23;46750;-83
2021/11/04 23:07:58;;;;;;;;;3.33;3.33;;;;;;;;6207718;22;45334;-82
2021/11/04 23:13:29;;;;;;;;;7.00;5.67;;;;;;;;6183365;23;45398;-83
2021/11/04 23:15:54;;;;;;;;;3.00;3.00;;;;;;;;6160709;23;47075;-82
2021/11/04 23:18:20;;;;;;;;;6.00;5.67;;;;;;;;6188359;23;44689;-82
2021/11/04 23:20:45;;;;;;;;;6.33;6.33;;;;;;;;6161182;23;45417;-82
2021/11/04 23:23:11;;;;;;;;;7.00;7.00;;;;;;;;6188352;23;45297;-80
2021/11/04 23:25:39;;;;;;;;;7.33;7.33;;;;;;;;6161049;23;46944;-82
2021/11/04 23:28:06;;;;;;;;;5.33;5.33;;;;;;;;6187946;23;45194;-82
2021/11/04 23:30:31;;;;;;;;;6.67;6.33;;;;;;;;6160675;23;45240;-82
2021/11/04 23:32:57;;;;;;;;;2.00;2.00;;;;;;;;6160439;23;45318;-82
2021/11/04 23:38:26;;;;;;;;;7.67;7.67;;;;;;;;6186708;23;45334;-82
2021/11/04 23:41:00;;;;;;;;;7.33;7.33;;;;;;;;6207278;22;45375;-82
2021/11/04 23:43:36;;;;;;;;;6.33;6.33;;;;;;;;6190873;22;45318;-82
2021/11/04 23:46:03;;;;;;;;;8.33;7.33;;;;;;;;6190869;22;47057;-82
2021/11/04 23:48:29;;;;;;;;;7.00;6.00;;;;;;;;6193248;22;45335;-82
2021/11/04 23:50:54;;;;;;;;;7.67;7.67;;;;;;;;6191961;22;45347;-82
2021/11/04 23:53:22;;;;;;;;;6.33;4.00;;;;;;;;6221464;22;45275;-83
2021/11/04 23:55:48;;;;;;;;;7.67;6.00;;;;;;;;6221039;22;45461;-82
2021/11/04 23:58:16;;;;;;;;;7.00;5.33;;;;;;;;6193856;22;45360;-82
